sensor_id;sensor_type;location;lat;lon;timestamp;pressure;altitude;pressure_sealevel;temperature;humidity
41706;BME280;27385;51.096;17.190;2024-03-25T17:37:09;99346.59;;;5.54;88.90
41706;BME280;27385;51.096;17.190;2024-03-25T17:40:54;99337.81;;;5.47;88.83
41706;BME280;27385;51.096;17.190;2024-03-25T17:44:43;99340.02;;;5.47;88.83
41706;BME280;27385;51.096;17.190;2024-03-25T17:48:26;99340.55;;;5.48;88.76
41706;BME280;27385;51.096;17.190;2024-03-25T17:52:05;99345.12;;;5.50;88.60
41706;BME280;27385;51.096;17.190;2024-03-25T17:56:08;99346.64;;;5.52;88.46
41706;BME280;27385;51.096;17.190;2024-03-25T17:59:41;99346.29;;;5.52;88.54
41706;BME280;27385;51.096;17.190;2024-03-25T18:02:32;99349.27;;;5.51;88.56
41706;BME280;27385;51.096;17.190;2024-03-25T18:06:10;99347.52;;;5.51;88.68
41706;BME280;27385;51.096;17.190;2024-03-25T18:10:16;99353.48;;;5.52;88.68
41706;BME280;27385;51.096;17.190;2024-03-25T18:14:47;99356.27;;;5.54;88.57
41706;BME280;27385;51.096;17.190;2024-03-25T18:18:20;99361.66;;;5.53;88.49
41706;BME280;27385;51.096;17.190;2024-03-25T18:21:58;99364.40;;;5.54;88.53
41706;BME280;27385;51.096;17.190;2024-03-25T18:25:49;99365.91;;;5.54;88.46
41706;BME280;27385;51.096;17.190;2024-03-25T18:29:49;99364.14;;;5.56;88.58
41706;BME280;27385;51.096;17.190;2024-03-25T18:33:52;99364.70;;;5.56;88.56
41706;BME280;27385;51.096;17.190;2024-03-25T18:37:41;99368.81;;;5.51;88.43
41706;BME280;27385;51.096;17.190;2024-03-25T18:41:28;99370.08;;;5.46;88.36
41706;BME280;27385;51.096;17.190;2024-03-25T18:45:14;99372.02;;;5.41;88.40
41706;BME280;27385;51.096;17.190;2024-03-25T18:48:56;99378.07;;;5.37;88.45
41706;BME280;27385;51.096;17.190;2024-03-25T18:52:35;99382.78;;;5.31;88.58
41706;BME280;27385;51.096;17.190;2024-03-25T18:56:20;99383.52;;;5.27;88.63
41706;BME280;27385;51.096;17.190;2024-03-25T19:00:05;99386.05;;;5.23;88.69
41706;BME280;27385;51.096;17.190;2024-03-25T19:03:53;99384.19;;;5.16;88.76
41706;BME280;27385;51.096;17.190;2024-03-25T19:07:28;99387.12;;;5.09;88.97
41706;BME280;27385;51.096;17.190;2024-03-25T19:10:56;99383.86;;;5.04;89.05
41706;BME280;27385;51.096;17.190;2024-03-25T19:14:45;99386.42;;;5.01;89.25
41706;BME280;27385;51.096;17.190;2024-03-25T19:18:26;99385.86;;;4.96;89.36
41706;BME280;27385;51.096;17.190;2024-03-25T19:22:23;99381.87;;;4.89;89.64
41706;BME280;27385;51.096;17.190;2024-03-25T19:26:02;99381.54;;;4.83;89.63
41706;BME280;27385;51.096;17.190;2024-03-25T19:29:31;99391.92;;;4.82;89.63
41706;BME280;27385;51.096;17.190;2024-03-25T19:32:46;99394.48;;;4.80;89.55
41706;BME280;27385;51.096;17.190;2024-03-25T19:35:46;99396.00;;;4.80;89.45
41706;BME280;27385;51.096;17.190;2024-03-25T19:39:07;99398.52;;;4.82;89.23
41706;BME280;27385;51.096;17.190;2024-03-25T19:42:20;99402.04;;;4.84;89.02
41706;BME280;27385;51.096;17.190;2024-03-25T19:45:26;99400.18;;;4.84;88.87
41706;BME280;27385;51.096;17.190;2024-03-25T19:49:02;99398.44;;;4.85;88.70
41706;BME280;27385;51.096;17.190;2024-03-25T19:52:34;99399.14;;;4.85;88.55
41706;BME280;27385;51.096;17.190;2024-03-25T19:56:13;99394.26;;;4.83;88.34
41706;BME280;27385;51.096;17.190;2024-03-25T19:59:43;99395.57;;;4.81;88.14
41706;BME280;27385;51.096;17.190;2024-03-25T20:03:39;99399.84;;;4.77;87.94
41706;BME280;27385;51.096;17.190;2024-03-25T20:07:08;99398.06;;;4.73;87.77
41706;BME280;27385;51.096;17.190;2024-03-25T20:10:50;99399.80;;;4.67;87.61
41706;BME280;27385;51.096;17.190;2024-03-25T20:14:36;99399.55;;;4.62;87.62
41706;BME280;27385;51.096;17.190;2024-03-25T20:18:17;99396.83;;;4.54;87.31
41706;BME280;27385;51.096;17.190;2024-03-25T20:21:39;99399.77;;;4.46;87.26
41706;BME280;27385;51.096;17.190;2024-03-25T20:26:11;99397.81;;;4.36;87.30
41706;BME280;27385;51.096;17.190;2024-03-25T20:29:51;99398.10;;;4.29;87.38
41706;BME280;27385;51.096;17.190;2024-03-25T20:33:49;99406.86;;;4.23;87.39
41706;BME280;27385;51.096;17.190;2024-03-25T20:37:37;99403.65;;;4.18;87.55
41706;BME280;27385;51.096;17.190;2024-03-25T20:41:04;99408.29;;;4.16;87.62
41706;BME280;27385;51.096;17.190;2024-03-25T20:44:32;99411.83;;;4.09;87.54
41706;BME280;27385;51.096;17.190;2024-03-25T20:48:11;99412.60;;;4.02;87.77
41706;BME280;27385;51.096;17.190;2024-03-25T20:51:28;99416.33;;;3.99;87.69
41706;BME280;27385;51.096;17.190;2024-03-25T20:55:00;99415.06;;;3.97;87.58
41706;BME280;27385;51.096;17.190;2024-03-25T20:58:39;99417.98;;;3.96;87.61
41706;BME280;27385;51.096;17.190;2024-03-25T21:02:21;99422.47;;;3.95;87.56
41706;BME280;27385;51.096;17.190;2024-03-25T21:06:18;99421.62;;;3.93;87.46
41706;BME280;27385;51.096;17.190;2024-03-25T21:09:53;99420.68;;;3.91;87.40
41706;BME280;27385;51.096;17.190;2024-03-25T21:13:30;99417.90;;;3.87;87.35
41706;BME280;27385;51.096;17.190;2024-03-25T21:17:22;99420.27;;;3.81;87.08
41706;BME280;27385;51.096;17.190;2024-03-25T21:21:37;99415.42;;;3.74;87.10
41706;BME280;27385;51.096;17.190;2024-03-25T21:25:26;99418.96;;;3.70;86.95
41706;BME280;27385;51.096;17.190;2024-03-25T21:29:31;99421.29;;;3.67;86.88
41706;BME280;27385;51.096;17.190;2024-03-25T21:33:23;99429.34;;;3.63;86.78
41706;BME280;27385;51.096;17.190;2024-03-25T21:39:40;99427.98;;;3.57;86.67
41706;BME280;27385;51.096;17.190;2024-03-25T21:42:44;99422.70;;;3.55;86.61
41706;BME280;27385;51.096;17.190;2024-03-25T21:45:56;99426.94;;;3.51;86.41
41706;BME280;27385;51.096;17.190;2024-03-25T21:48:47;99420.45;;;3.48;86.52
41706;BME280;27385;51.096;17.190;2024-03-25T21:51:39;99417.89;;;3.45;86.56
41706;BME280;27385;51.096;17.190;2024-03-25T21:54:34;99415.33;;;3.41;86.39
41706;BME280;27385;51.096;17.190;2024-03-25T21:57:37;99417.53;;;3.37;86.32
41706;BME280;27385;51.096;17.190;2024-03-25T22:01:14;99417.45;;;3.31;86.10
41706;BME280;27385;51.096;17.190;2024-03-25T22:05:02;99425.06;;;3.23;86.07
41706;BME280;27385;51.096;17.190;2024-03-25T22:08:47;99424.39;;;3.17;86.19
41706;BME280;27385;51.096;17.190;2024-03-25T22:12:27;99425.02;;;3.14;86.28
41706;BME280;27385;51.096;17.190;2024-03-25T22:16:14;99422.86;;;3.10;86.09
41706;BME280;27385;51.096;17.190;2024-03-25T22:19:56;99420.70;;;3.06;86.09
41706;BME280;27385;51.096;17.190;2024-03-25T22:23:43;99426.39;;;2.99;85.87
41706;BME280;27385;51.096;17.190;2024-03-25T22:27:29;99423.89;;;2.92;85.93
41706;BME280;27385;51.096;17.190;2024-03-25T22:31:07;99415.80;;;2.89;86.04
41706;BME280;27385;51.096;17.190;2024-03-25T22:34:52;99417.29;;;2.87;86.04
41706;BME280;27385;51.096;17.190;2024-03-25T22:38:33;99418.59;;;2.81;85.79
41706;BME280;27385;51.096;17.190;2024-03-25T22:42:02;99424.04;;;2.74;85.69
41706;BME280;27385;51.096;17.190;2024-03-25T22:45:31;99418.69;;;2.69;85.84
41706;BME280;27385;51.096;17.190;2024-03-25T22:49:08;99421.70;;;2.67;85.90
41706;BME280;27385;51.096;17.190;2024-03-25T22:52:55;99423.92;;;2.64;85.87
41706;BME280;27385;51.096;17.190;2024-03-25T22:56:24;99419.65;;;2.62;86.04
41706;BME280;27385;51.096;17.190;2024-03-25T22:59:54;99418.48;;;2.60;85.95
41706;BME280;27385;51.096;17.190;2024-03-25T23:03:41;99417.80;;;2.56;85.90
41706;BME280;27385;51.096;17.190;2024-03-25T23:07:17;99418.44;;;2.53;86.10
41706;BME280;27385;51.096;17.190;2024-03-25T23:11:03;99422.88;;;2.50;86.02
41706;BME280;27385;51.096;17.190;2024-03-25T23:14:49;99429.25;;;2.45;85.90
41706;BME280;27385;51.096;17.190;2024-03-25T23:18:35;99429.80;;;2.41;85.92
41706;BME280;27385;51.096;17.190;2024-03-25T23:22:22;99434.31;;;2.37;85.99
41706;BME280;27385;51.096;17.190;2024-03-25T23:26:00;99433.13;;;2.33;85.95
41706;BME280;27385;51.096;17.190;2024-03-25T23:29:40;99436.99;;;2.27;85.89
41706;BME280;27385;51.096;17.190;2024-03-25T23:33:25;99440.95;;;2.22;85.76
41706;BME280;27385;51.096;17.190;2024-03-25T23:37:11;99440.31;;;2.13;85.61
41706;BME280;27385;51.096;17.190;2024-03-25T23:40:49;99441.21;;;2.05;85.82
41706;BME280;27385;51.096;17.190;2024-03-25T23:44:30;99431.64;;;2.03;85.95
41706;BME280;27385;51.096;17.190;2024-03-25T23:48:03;99429.86;;;2.03;86.02
41706;BME280;27385;51.096;17.190;2024-03-25T23:51:26;99432.83;;;2.01;85.79
41706;BME280;27385;51.096;17.190;2024-03-25T23:55:04;99434.15;;;1.98;85.94
41706;BME280;27385;51.096;17.190;2024-03-25T23:58:42;99435.14;;;1.97;85.96
